Time;durP1;ratioP1;P1;durP2;ratioP2;P2;SDS_P1;SDS_P2;PMS_P1;PMS_P2;Temp;Humidity;BMP_temperature;BMP_pressure;BME280_temperature;BME280_humidity;BME280_pressure;Samples;Min_cycle;Max_cycle;Signal;HPM_P1;HPM_P2
2023/07/14 00:03:06;;;;;;;6.10;4.10;;;;;;;19.51;59.01;100477.89;109113;1277;24333;-84
2023/07/14 00:05:52;;;;;;;9.50;4.70;;;;;;;19.44;59.12;100477.66;108903;1279;22174;-84
2023/07/14 00:08:53;;;;;;;8.20;4.40;;;;;;;19.39;59.35;100482.77;108894;1279;22054;-84
2023/07/14 00:12:14;;;;;;;5.60;4.50;;;;;;;19.37;59.54;100487.02;109065;1279;22737;-83
2023/07/14 00:15:50;;;;;;;4.60;4.20;;;;;;;19.27;59.63;100485.10;108940;1279;24391;-85
2023/07/14 00:19:39;;;;;;;4.80;4.00;;;;;;;19.18;59.82;100484.31;108991;1279;23640;-84
2023/07/14 00:22:43;;;;;;;4.20;3.80;;;;;;;19.04;59.73;100471.73;108856;1279;21985;-84
2023/07/14 00:26:07;;;;;;;7.20;4.10;;;;;;;19.03;59.77;100482.05;108804;1282;21992;-85
2023/07/14 00:29:46;;;;;;;4.80;3.60;;;;;;;18.97;59.82;100483.14;108837;1282;21987;-83
2023/07/14 00:33:29;;;;;;;6.00;4.20;;;;;;;18.90;59.70;100485.23;108782;1282;21988;-84
2023/07/14 00:36:18;;;;;;;7.00;4.40;;;;;;;18.85;59.73;100486.27;109010;1274;23631;-83
2023/07/14 00:39:14;;;;;;;6.70;4.20;;;;;;;18.84;59.76;100489.55;108946;1281;21986;-84
2023/07/14 00:42:14;;;;;;;;;;;;;;;18.80;59.60;100490.30;108925;1281;21974;-83
2023/07/14 00:45:31;;;;;;;5.20;4.40;;;;;;;18.68;59.87;100491.35;108652;1286;22021;-82
2023/07/14 00:49:00;;;;;;;;;;;;;;;;;;;;;
2023/07/14 00:52:48;;;;;;;;;;;;;;;;;;;;;
2023/07/14 00:56:14;;;;;;;6.20;5.10;;;;;;;18.53;59.77;100495.66;108943;1278;21887;-84
2023/07/14 00:58:59;;;;;;;6.80;4.40;;;;;;;18.48;59.73;100495.69;109204;1276;22049;-84
2023/07/14 01:02:27;;;;;;;5.80;4.60;;;;;;;18.45;59.69;100491.16;109304;1276;21985;-84
2023/07/14 01:09:05;;;;;;;13.30;5.20;;;;;;;18.39;59.88;100495.25;109355;1276;23792;-83
2023/07/14 01:12:12;;;;;;;;;;;;;;;;;;;;;
2023/07/14 01:15:20;;;;;;;8.00;4.80;;;;;;;18.29;60.08;100503.52;110518;1264;23126;-85
2023/07/14 01:18:37;;;;;;;5.40;4.50;;;;;;;18.26;59.96;100504.05;110290;1264;23637;-84
2023/07/14 01:21:44;;;;;;;;;;;;;;;;;;;;;
2023/07/14 01:25:33;;;;;;;6.20;4.70;;;;;;;18.16;60.13;100498.54;110094;1265;21994;-88
2023/07/14 01:29:20;;;;;;;6.00;5.40;;;;;;;18.07;60.42;100508.15;109448;1274;21983;-84
2023/07/14 01:32:45;;;;;;;6.10;4.30;;;;;;;17.99;60.44;100522.08;109233;1275;23667;-88
2023/07/14 01:36:18;;;;;;;9.00;5.10;;;;;;;17.94;60.66;100521.50;109210;1279;23695;-85
2023/07/14 01:39:31;;;;;;;7.70;4.40;;;;;;;17.86;60.95;100520.79;109141;1279;22009;-82
2023/07/14 01:42:41;;;;;;;7.30;4.30;;;;;;;17.85;60.94;100528.60;109105;1275;21981;-85
2023/07/14 01:46:15;;;;;;;7.70;4.70;;;;;;;17.81;60.89;100528.66;109374;1271;23024;-85
2023/07/14 01:49:49;;;;;;;6.10;4.50;;;;;;;17.75;60.95;100533.98;109306;1276;21999;-85
2023/07/14 01:53:03;;;;;;;10.00;5.10;;;;;;;17.66;60.90;100539.48;109375;1273;22000;-83
2023/07/14 01:56:01;;;;;;;6.70;5.10;;;;;;;17.61;60.92;100538.55;109375;1273;22473;-85
2023/07/14 01:59:36;;;;;;;;;;;;;;;;;;;;;
2023/07/14 02:03:19;;;;;;;6.20;4.90;;;;;;;17.49;61.08;100545.49;109512;1271;24341;-85
2023/07/14 02:06:39;;;;;;;9.60;5.50;;;;;;;17.43;60.82;100548.14;109789;1264;21983;-85
2023/07/14 02:09:30;;;;;;;5.90;5.30;;;;;;;17.39;60.94;100550.48;110547;1264;21970;-82
2023/07/14 02:12:55;;;;;;;6.70;5.20;;;;;;;17.36;61.02;100556.15;110421;1264;21971;-85
2023/07/14 02:16:17;;;;;;;8.20;5.70;;;;;;;17.32;61.13;100561.35;109554;1271;23841;-86
2023/07/14 02:20:10;;;;;;;;;;;;;;;;;;;;;
2023/07/14 02:23:21;;;;;;;6.90;5.30;;;;;;;17.23;61.17;100560.16;109528;1273;22018;-83
2023/07/14 02:26:55;;;;;;;;;;;;;;;;;;;;;
2023/07/14 02:30:21;;;;;;;7.90;5.50;;;;;;;17.13;61.32;100561.25;109573;1273;21998;-84
2023/07/14 02:33:56;;;;;;;7.90;5.30;;;;;;;17.11;61.35;100566.66;109650;1268;21982;-84
2023/07/14 02:37:06;;;;;;;19.60;18.00;;;;;;;17.07;61.34;100577.15;109165;1277;21995;-85
2023/07/14 02:40:22;;;;;;;16.40;14.90;;;;;;;16.99;61.20;100582.04;109355;1275;22107;-89
2023/07/14 02:43:17;;;;;;;24.30;22.20;;;;;;;16.95;61.08;100583.50;108997;1279;21997;-87
2023/07/14 02:47:23;;;;;;;20.70;19.00;;;;;;;16.88;61.34;100589.20;109156;1279;21993;-84
2023/07/14 02:50:42;;;;;;;14.30;13.10;;;;;;;16.77;61.57;100595.04;108850;1283;21997;-87
2023/07/14 02:53:43;;;;;;;13.20;11.50;;;;;;;16.73;61.86;100596.89;108565;1287;24328;-85
2023/07/14 02:56:44;;;;;;;12.30;10.60;;;;;;;16.67;62.02;100603.91;108921;1280;21986;-85
2023/07/14 02:59:40;;;;;;;;;;;;;;;;;;;;;
2023/07/14 03:02:52;;;;;;;10.20;7.60;;;;;;;16.65;62.58;100612.69;109100;1279;22115;-87
2023/07/14 03:09:28;;;;;;;6.30;5.70;;;;;;;16.61;62.85;100619.73;109092;1277;23733;-83
2023/07/14 03:12:20;;;;;;;9.70;6.00;;;;;;;16.63;63.00;100618.77;109390;1273;22116;-84
2023/07/14 03:15:25;;;;;;;9.80;5.60;;;;;;;16.65;62.89;100616.35;109292;1276;22763;-86
2023/07/14 03:18:33;;;;;;;7.00;5.60;;;;;;;16.67;63.04;100618.34;109209;1272;21993;-85
2023/07/14 03:21:24;;;;;;;11.10;7.70;;;;;;;16.70;62.96;100620.26;109211;1276;21984;-82
2023/07/14 03:25:02;;;;;;;10.80;6.90;;;;;;;16.73;63.07;100623.79;109573;1272;21977;-84
2023/07/14 03:28:14;;;;;;;8.90;7.30;;;;;;;16.73;63.00;100628.67;109334;1277;22598;-85
2023/07/14 03:31:12;;;;;;;8.00;6.60;;;;;;;16.76;62.95;100633.63;109195;1271;22044;-85
2023/07/14 03:34:28;;;;;;;8.80;6.30;;;;;;;16.77;63.00;100636.70;109750;1269;21983;-84
2023/07/14 03:38:03;;;;;;;9.00;6.40;;;;;;;16.79;63.05;100636.62;110033;1269;23080;-84
2023/07/14 03:41:33;;;;;;;;;;;;;;;;;;;;;
2023/07/14 03:45:24;;;;;;;;;;;;;;;;;;;;;
2023/07/14 03:49:50;;;;;;;7.70;6.30;;;;;;;16.82;63.40;100650.88;109048;1279;22097;-83
2023/07/14 03:53:33;;;;;;;;;;;;;;;;;;;;;
2023/07/14 03:57:11;;;;;;;9.80;5.20;;;;;;;16.99;63.28;100661.83;109061;1279;22089;-83
2023/07/14 04:01:08;;;;;;;8.40;4.90;;;;;;;17.03;63.02;100664.73;109152;1279;21991;-82
2023/07/14 04:03:29;;;;;;;6.20;4.30;;;;;;;17.04;62.52;100650.07;108864;1279;21984;-82
2023/07/14 04:07:34;;;;;;;9.10;4.90;;;;;;;17.14;62.56;100655.83;109412;1274;23759;-83
2023/07/14 04:11:13;;;;;;;8.00;5.10;;;;;;;17.24;62.46;100659.80;109270;1275;21988;-82
2023/07/14 04:14:25;;;;;;;9.80;5.30;;;;;;;17.33;62.10;100663.41;109254;1277;21994;-82
2023/07/14 04:18:05;;;;;;;;;;;;;;;;;;;;;
2023/07/14 04:22:02;;;;;;;;;;;;;;;;;;;;;
2023/07/14 04:25:36;;;;;;;9.50;5.80;;;;;;;17.76;61.60;100673.34;108994;1278;21973;-84
2023/07/14 04:29:10;;;;;;;8.60;5.60;;;;;;;17.88;61.12;100672.74;108911;1282;22743;-85
2023/07/14 04:33:28;;;;;;;8.80;5.70;;;;;;;17.97;60.87;100677.81;109451;1275;21988;-83
2023/07/14 04:38:39;;;;;;;;;;;;;;;;;;;;;
2023/07/14 04:47:23;;;;;;;;;;;;;;;;;;;;;
2023/07/14 05:06:02;;;;;;;;;;;;;;;;;;;;;
2023/07/14 05:09:46;;;;;;;7.70;3.70;;;;;;;22.47;49.59;100694.73;106972;1273;3349926;-83
2023/07/14 05:13:28;;;;;;;5.10;3.40;;;;;;;22.65;50.22;100700.89;109685;1273;21994;-84
2023/07/14 05:16:38;;;;;;;5.30;3.60;;;;;;;22.97;50.51;100703.92;110334;1267;22392;-82
2023/07/14 05:19:24;;;;;;;6.30;3.40;;;;;;;23.28;49.55;100704.45;110287;1267;23594;-83
2023/07/14 05:22:27;;;;;;;5.20;3.60;;;;;;;23.46;48.88;100703.95;109971;1267;22501;-81
2023/07/14 05:25:09;;;;;;;5.10;2.80;;;;;;;23.67;48.44;100704.69;109974;1267;22457;-81
2023/07/14 05:28:14;;;;;;;6.50;2.90;;;;;;;23.67;47.92;100698.29;110205;1266;22064;-83
2023/07/14 05:31:03;;;;;;;4.40;3.10;;;;;;;23.84;48.26;100704.96;110112;1267;22077;-82
2023/07/14 05:33:52;;;;;;;6.90;3.50;;;;;;;23.91;47.17;100715.68;110159;1264;22825;-82
2023/07/14 05:36:41;;;;;;;5.80;3.20;;;;;;;23.92;47.52;100714.76;110240;1267;21968;-83
2023/07/14 05:39:31;;;;;;;4.20;2.60;;;;;;;24.10;47.29;100712.09;109880;1266;21964;-82
2023/07/14 05:42:11;;;;;;;5.50;3.90;;;;;;;24.12;46.54;100711.22;110350;1267;22740;-83
2023/07/14 05:44:56;;;;;;;8.90;3.70;;;;;;;24.30;47.10;100709.25;109877;1268;22738;-83
2023/07/14 05:47:39;;;;;;;7.80;3.60;;;;;;;24.51;46.40;100710.17;109835;1268;23699;-82
2023/07/14 05:50:24;;;;;;;4.20;2.70;;;;;;;24.66;45.56;100717.75;109470;1272;21968;-82
2023/07/14 05:53:11;;;;;;;11.30;3.00;;;;;;;24.79;45.60;100722.13;109755;1268;22482;-83
2023/07/14 05:55:53;;;;;;;12.70;2.40;;;;;;;24.91;44.85;100725.80;109735;1271;22301;-84
2023/07/14 05:59:04;;;;;;;;;;;;;;;;;;;;;
2023/07/14 06:01:58;;;;;;;5.10;2.20;;;;;;;25.18;44.08;100723.81;109258;1276;23675;-82
2023/07/14 06:04:56;;;;;;;5.80;2.40;;;;;;;25.27;43.67;100722.48;109277;1277;22395;-82
2023/07/14 06:07:46;;;;;;;16.10;2.70;;;;;;;25.33;43.10;100721.92;109250;1271;22001;-82
2023/07/14 06:10:52;;;;;;;5.90;2.50;;;;;;;25.46;43.22;100722.59;109833;1271;21987;-82
2023/07/14 06:13:44;;;;;;;9.90;1.90;;;;;;;25.73;42.58;100722.23;109663;1268;22474;-82
2023/07/14 06:16:39;;;;;;;2.50;1.40;;;;;;;25.84;41.68;100731.33;110105;1267;22102;-83
2023/07/14 06:19:27;;;;;;;5.00;1.80;;;;;;;25.94;41.34;100737.36;110188;1269;22317;-82
2023/07/14 06:22:03;;;;;;;4.20;1.70;;;;;;;26.01;41.06;100733.30;109548;1273;22019;-81
2023/07/14 06:24:48;;;;;;;3.10;2.20;;;;;;;26.07;40.79;100736.98;109671;1272;23621;-82
2023/07/14 06:27:24;;;;;;;6.70;2.10;;;;;;;26.02;40.07;100738.36;109335;1272;22928;-82
2023/07/14 06:30:14;;;;;;;4.30;1.60;;;;;;;25.93;40.11;100734.02;109348;1273;21979;-82
2023/07/14 06:33:27;;;;;;;3.80;2.00;;;;;;;26.05;40.31;100737.31;109502;1273;24123;-81
2023/07/14 06:36:00;;;;;;;5.60;2.10;;;;;;;26.17;39.78;100737.63;109627;1273;21990;-82
2023/07/14 06:38:49;;;;;;;8.30;2.40;;;;;;;26.22;39.75;100734.58;110114;1269;21960;-85
2023/07/14 06:41:24;;;;;;;5.30;2.10;;;;;;;26.44;39.73;100736.20;109494;1273;21979;-86
2023/07/14 06:44:12;;;;;;;3.40;2.00;;;;;;;26.63;39.17;100742.36;109522;1273;21978;-88
2023/07/14 06:46:59;;;;;;;4.60;2.10;;;;;;;26.85;39.26;100744.27;110334;1265;23798;-83
2023/07/14 06:49:29;;;;;;;5.20;1.90;;;;;;;27.08;38.82;100741.92;110576;1266;23059;-83
2023/07/14 06:52:08;;;;;;;4.70;2.00;;;;;;;27.18;37.50;100746.86;109898;1271;23061;-83
2023/07/14 06:54:40;;;;;;;5.60;1.90;;;;;;;27.08;37.31;100749.27;109694;1272;22077;-86
2023/07/14 06:57:12;;;;;;;3.20;1.80;;;;;;;27.07;37.45;100746.67;109689;1272;22007;-86
2023/07/14 07:00:40;;;;;;;4.20;2.10;;;;;;;27.15;37.37;100744.45;110281;1266;21975;-84
2023/07/14 07:03:34;;;;;;;4.20;1.60;;;;;;;27.30;37.58;100741.05;110551;1267;21976;-83
2023/07/14 07:06:11;;;;;;;6.90;1.80;;;;;;;27.58;36.98;100739.70;110327;1267;22006;-83
2023/07/14 07:08:52;;;;;;;8.60;2.40;;;;;;;27.68;36.05;100734.95;110465;1267;21997;-82
2023/07/14 07:11:54;;;;;;;5.90;1.90;;;;;;;27.83;36.41;100739.58;110908;1260;22056;-85
2023/07/14 07:14:46;;;;;;;8.30;2.70;;;;;;;28.09;36.23;100743.02;109887;1269;21978;-85
2023/07/14 07:18:14;;;;;;;5.50;2.50;;;;;;;28.27;35.57;100729.24;110042;1268;21975;-83
2023/07/14 07:20:56;;;;;;;3.20;1.70;;;;;;;28.50;34.90;100728.48;109415;1276;22007;-82
2023/07/14 07:23:39;;;;;;;5.30;1.80;;;;;;;28.63;34.23;100739.77;109396;1276;22008;-81
2023/07/14 07:26:16;;;;;;;3.30;1.50;;;;;;;28.64;34.44;100737.32;109518;1268;21980;-84
2023/07/14 07:28:56;;;;;;;2.60;1.40;;;;;;;28.78;34.62;100738.17;109341;1274;22967;-82
2023/07/14 07:32:06;;;;;;;9.00;1.80;;;;;;;28.89;33.78;100734.98;109170;1278;22859;-82
2023/07/14 07:34:40;;;;;;;3.00;1.70;;;;;;;28.76;33.71;100736.23;109488;1275;23120;-82
2023/07/14 07:37:18;;;;;;;7.00;3.80;;;;;;;28.87;33.85;100734.88;109425;1275;21980;-82
2023/07/14 07:39:50;;;;;;;9.20;2.20;;;;;;;28.95;33.36;100735.92;110056;1266;21969;-84
2023/07/14 07:42:44;;;;;;;6.90;1.90;;;;;;;29.11;33.38;100730.98;110369;1266;22002;-83
2023/07/14 07:45:52;;;;;;;4.90;1.70;;;;;;;29.19;32.94;100735.41;109785;1271;21968;-82
2023/07/14 07:49:17;;;;;;;5.80;1.30;;;;;;;29.28;32.93;100736.41;109658;1268;22017;-82
2023/07/14 07:52:11;;;;;;;2.40;1.50;;;;;;;29.49;32.61;100732.83;109621;1272;21980;-83
2023/07/14 07:55:46;;;;;;;;;;;;;;;;;;;;;
2023/07/14 07:58:47;;;;;;;3.20;1.50;;;;;;;29.85;31.57;100738.14;109210;1275;23717;-84
2023/07/14 08:01:46;;;;;;;2.80;1.20;;;;;;;30.01;31.34;100744.74;108911;1280;21985;-85
2023/07/14 08:04:54;;;;;;;3.50;1.70;;;;;;;30.01;30.11;100735.17;109150;1276;22003;-83
2023/07/14 08:07:59;;;;;;;3.40;1.20;;;;;;;29.77;30.20;100731.15;109298;1276;21986;-83
2023/07/14 08:10:57;;;;;;;4.20;1.50;;;;;;;29.65;30.19;100736.95;108994;1279;23146;-84
2023/07/14 08:14:19;;;;;;;6.70;2.10;;;;;;;29.61;30.51;100731.89;109251;1275;23048;-83
2023/07/14 08:17:02;;;;;;;5.20;2.10;;;;;;;29.75;30.28;100735.00;109267;1275;23709;-83
2023/07/14 08:20:26;;;;;;;3.70;1.40;;;;;;;29.84;30.25;100736.52;109663;1270;21988;-84
2023/07/14 08:23:40;;;;;;;2.60;1.80;;;;;;;30.04;30.17;100732.58;109695;1273;21990;-86
2023/07/14 08:31:54;;;;;;;3.20;1.30;;;;;;;30.24;29.35;100735.63;109896;1272;22007;-85
2023/07/14 08:34:47;;;;;;;5.80;1.30;;;;;;;30.18;29.09;100732.19;109803;1272;21982;-85
2023/07/14 08:38:07;;;;;;;4.80;1.60;;;;;;;30.17;29.11;100731.19;109637;1272;22027;-84
2023/07/14 08:42:30;;;;;;;7.40;1.70;;;;;;;30.23;29.07;100725.67;109942;1268;23598;-84
2023/07/14 08:45:23;;;;;;;4.70;1.30;;;;;;;30.21;28.95;100728.50;110231;1268;21996;-85
2023/07/14 08:49:16;;;;;;;2.10;1.30;;;;;;;30.08;28.61;100728.15;110507;1259;22564;-84
2023/07/14 08:52:49;;;;;;;2.30;1.30;;;;;;;29.95;28.90;100719.90;109757;1270;23591;-86
2023/07/14 08:55:27;;;;;;;5.80;1.50;;;;;;;29.89;28.79;100723.63;109214;1278;23627;-84
2023/07/14 08:58:27;;;;;;;3.90;1.20;;;;;;;29.79;28.67;100721.05;109028;1278;22321;-84
2023/07/14 09:01:48;;;;;;;4.00;1.90;;;;;;;29.81;28.60;100717.76;108935;1279;22677;-84
2023/07/14 09:05:05;;;;;;;3.10;1.40;;;;;;;29.77;28.35;100723.23;109230;1278;23622;-84
2023/07/14 09:07:44;;;;;;;2.50;1.30;;;;;;;29.70;28.92;100722.07;109201;1274;21969;-85
2023/07/14 09:10:49;;;;;;;2.50;1.30;;;;;;;29.82;29.10;100721.60;109639;1274;22877;-84
2023/07/14 09:14:08;;;;;;;4.60;1.70;;;;;;;29.95;28.59;100718.30;109690;1270;22082;-83
2023/07/14 09:17:46;;;;;;;2.40;0.80;;;;;;;30.01;28.54;100722.88;109562;1273;21981;-86
2023/07/14 09:20:29;;;;;;;1.30;0.90;;;;;;;30.01;28.04;100714.67;109060;1280;22004;-85
2023/07/14 09:23:42;;;;;;;3.50;1.10;;;;;;;30.05;28.08;100716.89;109363;1280;22096;-84
2023/07/14 09:26:42;;;;;;;4.40;1.40;;;;;;;29.80;27.56;100717.74;109356;1279;22119;-85
2023/07/14 09:29:39;;;;;;;2.40;1.40;;;;;;;29.57;28.42;100719.43;109016;1280;21995;-84
2023/07/14 09:32:41;;;;;;;6.90;1.10;;;;;;;29.53;28.78;100716.42;108952;1279;22008;-85
2023/07/14 09:35:49;;;;;;;2.10;1.50;;;;;;;29.58;28.70;100711.40;109085;1279;22067;-84
2023/07/14 09:38:54;;;;;;;2.40;1.30;;;;;;;29.54;28.27;100713.66;109001;1280;22012;-84
2023/07/14 09:41:52;;;;;;;;;;;;;;;;;;;;;
2023/07/14 09:45:08;;;;;;;2.80;1.20;;;;;;;29.29;28.46;100709.59;109234;1279;21985;-84
2023/07/14 09:48:08;;;;;;;2.10;0.90;;;;;;;29.20;28.57;100712.60;109050;1279;21990;-83
2023/07/14 09:51:11;;;;;;;4.80;1.50;;;;;;;29.13;28.60;100711.05;109502;1274;21981;-85
2023/07/14 09:54:19;;;;;;;4.20;1.30;;;;;;;29.10;28.87;100704.52;110391;1262;22776;-83
2023/07/14 09:57:30;;;;;;;5.20;1.50;;;;;;;29.08;28.47;100703.48;111066;1260;21968;-85
2023/07/14 10:00:41;;;;;;;2.00;1.10;;;;;;;29.02;28.46;100698.59;110928;1260;21993;-81
2023/07/14 10:03:59;;;;;;;;;;;;;;;;;;;;;
2023/07/14 10:07:42;;;;;;;5.20;1.50;;;;;;;28.55;28.54;100677.96;110347;1267;21992;-86
2023/07/14 10:11:22;;;;;;;2.60;0.90;;;;;;;28.52;28.83;100680.65;109511;1273;23724;-84
2023/07/14 10:14:50;;;;;;;;;;;;;;;;;;;;;
2023/07/14 10:17:52;;;;;;;6.90;2.20;;;;;;;28.54;28.56;100688.48;109164;1280;22006;-84
2023/07/14 10:21:00;;;;;;;4.30;1.10;;;;;;;28.54;28.85;100686.15;108810;1284;24380;-85
2023/07/14 10:24:05;;;;;;;7.60;1.90;;;;;;;28.65;29.03;100680.48;108844;1284;21997;-83
2023/07/14 10:27:03;;;;;;;5.40;1.60;;;;;;;28.70;28.36;100676.16;108757;1285;22019;-84
2023/07/14 10:30:18;;;;;;;;;;;;;;;;;;;;;
2023/07/14 10:37:42;;;;;;;3.70;1.40;;;;;;;28.72;27.95;100670.39;109650;1273;24419;-85
2023/07/14 10:41:15;;;;;;;7.20;2.30;;;;;;;28.68;27.54;100665.81;109554;1273;23052;-85
2023/07/14 10:44:11;;;;;;;4.80;1.10;;;;;;;28.53;27.48;100660.48;109173;1279;22129;-85
2023/07/14 10:47:12;;;;;;;;;;;;;;;;;;;;;
2023/07/14 10:50:46;;;;;;;4.20;1.40;;;;;;;28.24;27.74;100653.41;109250;1279;21981;-83
2023/07/14 10:54:24;;;;;;;1.80;0.90;;;;;;;28.14;28.24;100642.16;109353;1275;21982;-87
2023/07/14 10:57:29;;;;;;;;;;;;;;;28.13;29.29;100633.69;109375;1274;24859;-79
2023/07/14 11:00:38;;;;;;;4.70;1.20;;;;;;;28.21;30.06;100645.80;109319;1274;22998;-86
2023/07/14 11:03:50;;;;;;;;;;;;;;;;;;;;;
2023/07/14 11:06:48;;;;;;;2.10;1.30;;;;;;;28.17;28.79;100642.91;108990;1279;21994;-84
2023/07/14 11:10:09;;;;;;;10.40;2.40;;;;;;;28.09;28.92;100636.93;109831;1272;21996;-85
2023/07/14 11:13:15;;;;;;;3.30;1.40;;;;;;;28.06;29.43;100640.61;109606;1276;22005;-85
2023/07/14 11:16:42;;;;;;;4.00;1.20;;;;;;;28.08;29.28;100642.77;109527;1272;21989;-85
2023/07/14 11:20:37;;;;;;;2.00;1.10;;;;;;;28.00;29.00;100639.36;109451;1272;22066;-79
2023/07/14 11:24:41;;;;;;;23.40;2.10;;;;;;;27.93;28.91;100634.85;109818;1273;21988;-87
2023/07/14 11:27:57;;;;;;;12.30;2.00;;;;;;;27.86;29.24;100629.92;109057;1283;22066;-82
2023/07/14 11:30:59;;;;;;;;;;;;;;;;;;;;;
2023/07/14 11:34:32;;;;;;;7.40;3.70;;;;;;;27.90;29.44;100637.19;108525;1287;22017;-83
2023/07/14 11:37:44;;;;;;;3.90;1.40;;;;;;;27.94;29.36;100634.40;108558;1287;22274;-84
2023/07/14 11:40:23;;;;;;;2.50;1.00;;;;;;;27.97;29.05;100628.55;108753;1282;22042;-84
2023/07/14 11:43:00;;;;;;;;;;;;;;;27.96;28.86;100623.96;109079;1283;23699;-87
2023/07/14 11:45:34;;;;;;;2.90;1.60;;;;;;;27.91;28.86;100622.20;109019;1280;23775;-82
2023/07/14 11:48:05;;;;;;;2.90;1.20;;;;;;;27.94;29.08;100627.52;108862;1287;22051;-84
2023/07/14 11:50:40;;;;;;;3.20;1.30;;;;;;;27.93;29.11;100625.23;109226;1280;24438;-85
2023/07/14 11:53:39;;;;;;;2.90;1.30;;;;;;;27.97;29.29;100620.45;109349;1280;21942;-82
2023/07/14 11:56:43;;;;;;;4.40;2.00;;;;;;;28.03;29.02;100621.29;109170;1280;22746;-90
2023/07/14 11:59:32;;;;;;;3.20;1.60;;;;;;;28.10;29.02;100617.38;109339;1280;22002;-86
2023/07/14 12:02:49;;;;;;;3.80;1.60;;;;;;;28.18;29.22;100615.38;109053;1282;21720;-82
2023/07/14 12:05:31;;;;;;;3.90;1.60;;;;;;;28.26;28.59;100610.59;109347;1274;23165;-83
2023/07/14 12:08:05;;;;;;;4.40;1.40;;;;;;;28.20;28.33;100612.13;109904;1268;21974;-82
2023/07/14 12:10:45;;;;;;;4.00;1.90;;;;;;;28.10;28.35;100607.45;110595;1268;24308;-82
2023/07/14 12:13:18;;;;;;;3.90;1.40;;;;;;;28.05;28.75;100603.98;110186;1268;21971;-82
2023/07/14 12:16:11;;;;;;;4.20;1.40;;;;;;;28.12;28.96;100604.61;110608;1266;21998;-82
2023/07/14 12:19:20;;;;;;;2.10;1.10;;;;;;;28.18;28.96;100597.70;109644;1273;21988;-82
2023/07/14 12:22:37;;;;;;;3.20;1.20;;;;;;;28.23;28.81;100591.63;109597;1273;21990;-82
2023/07/14 12:25:15;;;;;;;7.70;2.10;;;;;;;28.19;28.71;100591.84;110051;1269;21998;-83
2023/07/14 12:27:56;;;;;;;4.80;1.50;;;;;;;28.24;28.90;100583.82;109663;1269;23036;-80
2023/07/14 12:30:31;;;;;;;5.40;2.20;;;;;;;28.31;28.68;100585.49;109840;1270;21977;-81
2023/07/14 12:33:22;;;;;;;2.90;1.30;;;;;;;28.37;28.57;100579.81;110047;1268;23765;-80
2023/07/14 12:36:21;;;;;;;4.80;1.50;;;;;;;28.38;28.44;100582.47;110284;1264;22409;-81
2023/07/14 12:39:12;;;;;;;2.90;1.50;;;;;;;28.31;28.61;100579.98;110598;1263;21977;-81
2023/07/14 12:41:47;;;;;;;4.30;1.40;;;;;;;28.31;28.59;100581.73;110855;1260;23705;-81
2023/07/14 12:44:53;;;;;;;6.10;1.50;;;;;;;28.27;28.55;100582.37;109984;1268;22149;-81
2023/07/14 12:47:27;;;;;;;2.40;1.60;;;;;;;28.22;28.68;100577.02;110132;1267;23071;-82
2023/07/14 12:49:56;;;;;;;3.30;1.30;;;;;;;28.25;28.63;100572.61;109579;1271;23836;-82
2023/07/14 12:52:41;;;;;;;4.10;1.60;;;;;;;28.25;28.59;100572.40;109619;1271;22023;-81
2023/07/14 12:55:24;;;;;;;3.80;1.80;;;;;;;28.21;28.29;100572.81;109647;1271;23719;-81
2023/07/14 12:58:15;;;;;;;3.50;1.60;;;;;;;28.07;28.18;100571.69;109463;1267;22004;-83
2023/07/14 13:00:59;;;;;;;3.00;1.00;;;;;;;27.91;28.50;100569.41;109523;1271;23037;-82
2023/07/14 13:03:47;;;;;;;3.90;1.10;;;;;;;27.83;28.61;100568.46;109629;1271;21985;-81
2023/07/14 13:06:24;;;;;;;2.70;1.50;;;;;;;27.81;29.09;100568.38;109701;1271;23640;-84
2023/07/14 13:09:20;;;;;;;6.70;1.80;;;;;;;27.80;29.43;100566.67;110288;1267;22201;-82
2023/07/14 13:11:52;;;;;;;3.40;2.60;;;;;;;27.83;29.80;100563.47;109879;1268;22134;-81
2023/07/14 13:14:44;;;;;;;4.50;1.80;;;;;;;27.95;29.98;100563.34;109877;1264;21971;-81
2023/07/14 13:17:25;;;;;;;3.30;1.80;;;;;;;28.09;29.72;100554.59;110233;1254;22830;-81
2023/07/14 13:20:08;;;;;;;4.00;1.50;;;;;;;28.20;29.09;100551.77;109725;1270;21981;-81
2023/07/14 13:22:37;;;;;;;4.20;1.60;;;;;;;28.26;28.87;100545.34;109579;1271;23073;-82
2023/07/14 13:25:25;;;;;;;3.00;1.20;;;;;;;28.26;28.62;100541.64;109614;1271;21979;-81
2023/07/14 13:27:54;;;;;;;3.00;1.90;;;;;;;28.23;28.44;100534.70;109842;1271;21995;-81
2023/07/14 13:30:32;;;;;;;3.40;2.00;;;;;;;28.26;28.60;100528.99;109623;1271;21999;-81
2023/07/14 13:33:04;;;;;;;2.80;1.20;;;;;;;28.24;28.45;100532.65;109613;1273;21994;-82
2023/07/14 13:36:00;;;;;;;2.60;2.20;;;;;;;28.20;28.36;100532.65;109876;1271;21985;-83
2023/07/14 13:39:06;;;;;;;4.80;1.20;;;;;;;28.13;28.28;100533.30;109681;1271;23611;-81
2023/07/14 13:42:11;;;;;;;2.80;1.20;;;;;;;28.05;28.28;100527.36;109674;1268;21999;-80
2023/07/14 13:45:42;;;;;;;5.70;1.40;;;;;;;28.00;28.15;100525.02;110543;1260;23603;-82
2023/07/14 13:48:31;;;;;;;2.80;1.40;;;;;;;27.97;27.95;100521.62;110389;1267;23846;-84
2023/07/14 13:51:04;;;;;;;4.60;1.60;;;;;;;27.99;28.02;100517.27;110503;1266;22950;-81
2023/07/14 13:53:34;;;;;;;7.90;1.90;;;;;;;28.03;28.12;100517.94;109633;1271;21978;-81
2023/07/14 13:56:04;;;;;;;4.40;1.60;;;;;;;28.06;28.22;100512.08;109428;1272;22097;-82
2023/07/14 13:58:43;;;;;;;3.60;1.60;;;;;;;28.10;28.28;100515.31;109730;1272;22074;-81
2023/07/14 14:01:22;;;;;;;3.70;1.80;;;;;;;28.12;28.17;100512.17;109677;1272;22011;-81
2023/07/14 14:04:03;;;;;;;3.70;1.30;;;;;;;28.10;28.03;100511.59;109599;1272;23088;-81
2023/07/14 14:06:33;;;;;;;5.10;4.40;;;;;;;28.07;27.66;100510.83;109337;1272;22024;-79
2023/07/14 14:09:02;;;;;;;4.00;2.70;;;;;;;28.02;27.61;100510.73;109624;1272;24412;-79
2023/07/14 14:11:33;;;;;;;3.00;1.70;;;;;;;28.00;27.72;100507.00;109466;1268;23820;-78
2023/07/14 14:14:05;;;;;;;5.20;1.40;;;;;;;27.97;27.65;100500.10;109389;1272;22907;-80
2023/07/14 14:16:36;;;;;;;5.20;1.80;;;;;;;27.94;27.64;100499.79;109208;1274;23748;-79
2023/07/14 14:19:24;;;;;;;2.70;1.30;;;;;;;27.90;27.79;100501.13;109489;1271;22544;-81
2023/07/14 14:21:59;;;;;;;4.80;1.20;;;;;;;27.89;27.59;100501.26;109692;1271;23100;-83
2023/07/14 14:24:32;;;;;;;3.70;1.50;;;;;;;27.85;27.53;100501.65;109346;1271;23815;-84
2023/07/14 14:27:03;;;;;;;3.70;1.30;;;;;;;27.87;27.73;100501.77;109917;1270;23045;-84
2023/07/14 14:29:32;;;;;;;3.50;1.30;;;;;;;27.90;27.61;100498.41;109733;1271;22022;-83
2023/07/14 14:32:16;;;;;;;2.80;1.50;;;;;;;27.88;27.68;100495.55;109717;1270;23036;-85
2023/07/14 14:34:47;;;;;;;18.80;2.20;;;;;;;27.90;27.87;100488.02;109394;1275;21998;-80
2023/07/14 14:37:17;;;;;;;6.60;1.20;;;;;;;27.93;28.00;100485.38;109370;1275;21959;-83
2023/07/14 14:39:58;;;;;;;2.70;1.40;;;;;;;27.98;28.30;100484.43;109395;1276;23835;-85
2023/07/14 14:42:33;;;;;;;5.80;2.60;;;;;;;28.05;28.28;100480.39;110072;1265;21990;-84
2023/07/14 14:45:31;;;;;;;4.50;3.60;;;;;;;28.09;28.32;100481.68;110193;1265;21989;-85
2023/07/14 14:48:29;;;;;;;;;;;;;;;28.12;28.26;100477.83;110356;1261;22013;-84
2023/07/14 14:51:19;;;;;;;11.80;1.90;;;;;;;27.99;27.94;100473.89;110641;1265;23595;-81
2023/07/14 14:53:49;;;;;;;21.10;2.20;;;;;;;27.92;27.93;100469.45;110694;1265;23718;-85
2023/07/14 14:56:45;;;;;;;4.00;1.40;;;;;;;27.88;28.13;100465.38;110774;1265;22891;-82
2023/07/14 14:59:25;;;;;;;4.60;1.30;;;;;;;27.90;27.97;100463.33;110551;1264;21945;-81
2023/07/14 15:02:00;;;;;;;6.10;1.80;;;;;;;27.89;27.88;100465.30;110558;1265;21991;-81
2023/07/14 15:05:26;;;;;;;3.20;1.50;;;;;;;27.86;28.25;100456.12;110312;1269;23595;-82
2023/07/14 15:08:16;;;;;;;4.10;1.50;;;;;;;27.90;27.98;100460.65;109592;1273;22011;-86
2023/07/14 15:11:32;;;;;;;3.90;1.90;;;;;;;27.87;27.73;100456.33;109833;1271;22637;-86
2023/07/14 15:14:26;;;;;;;3.90;1.50;;;;;;;27.85;27.54;100451.02;109945;1271;23760;-85
2023/07/14 15:17:23;;;;;;;7.80;1.60;;;;;;;27.80;27.54;100447.77;109795;1272;21992;-85
2023/07/14 15:20:32;;;;;;;4.90;2.60;;;;;;;27.72;27.75;100446.56;109697;1271;22049;-85
2023/07/14 15:23:07;;;;;;;4.50;2.20;;;;;;;27.67;27.89;100447.73;109622;1271;22476;-84